Urbain, Illinois
Current Conditions -  °F | °C
As of 10:52 AM on Tuesday 27 Jan 2015 (Local Time) from KMDH Reporting Station
Scattered Clouds Scattered Clouds  
Wind Chill: 36°   Ceiling: Unl
Heat Index: 42°   Visibility: 10mi
Dew Point: 31°   Wind: 12mph
Humidity: 65%   Direction: 20°NNE
Pressure: 30.15"   Gusts: 18mph
Location:  37.9667°N, 89.1298°W
Report Text: KMDH 271652Z 02010G16KT 10SM SCT024 06/M01 A3015 RMK AO2 SLP213 T00561006
Loading
Personal Weather Stations






























Interactive Weather Map New forecast layout! Learn more

10-Day Weather Forecast

Advertisements
Track Severe Weather on mobile